sensor_id;sensor_type;location;lat;lon;timestamp;P1;durP1;ratioP1;P2;durP2;ratioP2
43363;SDS011;40636;52.424;-1.948;2022-08-27T00:01:52;6.05;;;3.20;;
43363;SDS011;40636;52.424;-1.948;2022-08-27T00:04:19;9.35;;;3.47;;
43363;SDS011;40636;52.424;-1.948;2022-08-27T00:06:48;6.03;;;3.25;;
43363;SDS011;40636;52.424;-1.948;2022-08-27T00:09:16;8.35;;;3.13;;
43363;SDS011;40636;52.424;-1.948;2022-08-27T00:11:52;9.63;;;3.70;;
43363;SDS011;40636;52.424;-1.948;2022-08-27T00:14:19;9.70;;;2.72;;
43363;SDS011;40636;52.424;-1.948;2022-08-27T00:16:47;6.65;;;3.45;;
43363;SDS011;40636;52.424;-1.948;2022-08-27T00:19:14;8.10;;;3.03;;
43363;SDS011;40636;52.424;-1.948;2022-08-27T00:21:42;4.65;;;3.08;;
43363;SDS011;40636;52.424;-1.948;2022-08-27T00:24:09;10.20;;;4.03;;
43363;SDS011;40636;52.424;-1.948;2022-08-27T00:26:37;11.70;;;4.63;;
43363;SDS011;40636;52.424;-1.948;2022-08-27T00:29:08;7.82;;;3.35;;
43363;SDS011;40636;52.424;-1.948;2022-08-27T00:31:35;8.52;;;4.05;;
43363;SDS011;40636;52.424;-1.948;2022-08-27T00:34:02;7.93;;;3.17;;
43363;SDS011;40636;52.424;-1.948;2022-08-27T00:36:32;11.10;;;4.32;;
43363;SDS011;40636;52.424;-1.948;2022-08-27T00:38:59;10.18;;;4.20;;
43363;SDS011;40636;52.424;-1.948;2022-08-27T00:41:26;7.45;;;3.33;;
43363;SDS011;40636;52.424;-1.948;2022-08-27T00:43:59;6.85;;;3.97;;
43363;SDS011;40636;52.424;-1.948;2022-08-27T00:47:17;7.88;;;4.50;;
43363;SDS011;40636;52.424;-1.948;2022-08-27T00:49:50;10.27;;;4.68;;
43363;SDS011;40636;52.424;-1.948;2022-08-27T00:52:31;7.57;;;4.00;;
43363;SDS011;40636;52.424;-1.948;2022-08-27T00:55:05;7.18;;;4.30;;
43363;SDS011;40636;52.424;-1.948;2022-08-27T00:57:33;7.25;;;3.90;;
43363;SDS011;40636;52.424;-1.948;2022-08-27T01:00:07;7.15;;;3.88;;
43363;SDS011;40636;52.424;-1.948;2022-08-27T01:02:36;9.23;;;3.70;;
43363;SDS011;40636;52.424;-1.948;2022-08-27T01:05:07;9.77;;;4.00;;
43363;SDS011;40636;52.424;-1.948;2022-08-27T01:07:37;8.30;;;4.35;;
43363;SDS011;40636;52.424;-1.948;2022-08-27T01:10:07;8.05;;;4.13;;
43363;SDS011;40636;52.424;-1.948;2022-08-27T01:12:38;8.18;;;4.10;;
43363;SDS011;40636;52.424;-1.948;2022-08-27T01:15:06;10.20;;;4.10;;
43363;SDS011;40636;52.424;-1.948;2022-08-27T01:17:39;10.38;;;4.60;;
43363;SDS011;40636;52.424;-1.948;2022-08-27T01:20:11;8.48;;;4.40;;
43363;SDS011;40636;52.424;-1.948;2022-08-27T01:22:50;9.80;;;4.80;;
43363;SDS011;40636;52.424;-1.948;2022-08-27T01:25:26;12.57;;;5.03;;
43363;SDS011;40636;52.424;-1.948;2022-08-27T01:27:58;8.93;;;4.88;;
43363;SDS011;40636;52.424;-1.948;2022-08-27T01:30:47;10.68;;;5.18;;
43363;SDS011;40636;52.424;-1.948;2022-08-27T01:33:17;8.82;;;5.10;;
43363;SDS011;40636;52.424;-1.948;2022-08-27T01:35:49;9.35;;;4.93;;
43363;SDS011;40636;52.424;-1.948;2022-08-27T01:38:18;14.10;;;6.43;;
43363;SDS011;40636;52.424;-1.948;2022-08-27T01:40:57;7.88;;;4.43;;
43363;SDS011;40636;52.424;-1.948;2022-08-27T01:50:15;10.90;;;4.65;;
43363;SDS011;40636;52.424;-1.948;2022-08-27T01:52:46;8.48;;;4.32;;
43363;SDS011;40636;52.424;-1.948;2022-08-27T01:55:15;10.32;;;4.32;;
43363;SDS011;40636;52.424;-1.948;2022-08-27T01:57:44;8.32;;;3.75;;
43363;SDS011;40636;52.424;-1.948;2022-08-27T02:00:17;5.93;;;3.72;;
43363;SDS011;40636;52.424;-1.948;2022-08-27T02:02:47;8.13;;;4.22;;
43363;SDS011;40636;52.424;-1.948;2022-08-27T02:05:15;6.78;;;4.28;;
43363;SDS011;40636;52.424;-1.948;2022-08-27T02:07:43;6.53;;;4.35;;
43363;SDS011;40636;52.424;-1.948;2022-08-27T02:10:12;9.02;;;4.30;;
43363;SDS011;40636;52.424;-1.948;2022-08-27T02:12:42;6.47;;;4.07;;
43363;SDS011;40636;52.424;-1.948;2022-08-27T02:19:40;11.02;;;4.68;;
43363;SDS011;40636;52.424;-1.948;2022-08-27T02:22:21;10.07;;;3.88;;
43363;SDS011;40636;52.424;-1.948;2022-08-27T02:24:49;8.63;;;4.75;;
43363;SDS011;40636;52.424;-1.948;2022-08-27T02:27:19;10.18;;;4.38;;
43363;SDS011;40636;52.424;-1.948;2022-08-27T02:29:46;13.13;;;5.40;;
43363;SDS011;40636;52.424;-1.948;2022-08-27T02:32:15;9.95;;;4.72;;
43363;SDS011;40636;52.424;-1.948;2022-08-27T02:34:57;10.95;;;5.05;;
43363;SDS011;40636;52.424;-1.948;2022-08-27T02:37:25;17.85;;;5.22;;
43363;SDS011;40636;52.424;-1.948;2022-08-27T02:39:52;8.32;;;5.18;;
43363;SDS011;40636;52.424;-1.948;2022-08-27T02:42:19;7.38;;;4.20;;
43363;SDS011;40636;52.424;-1.948;2022-08-27T02:44:46;12.70;;;4.05;;
43363;SDS011;40636;52.424;-1.948;2022-08-27T02:47:13;9.60;;;5.07;;
43363;SDS011;40636;52.424;-1.948;2022-08-27T02:49:42;8.98;;;5.30;;
43363;SDS011;40636;52.424;-1.948;2022-08-27T02:52:09;8.70;;;5.85;;
43363;SDS011;40636;52.424;-1.948;2022-08-27T02:54:36;7.38;;;4.63;;
43363;SDS011;40636;52.424;-1.948;2022-08-27T02:57:04;11.32;;;4.57;;
43363;SDS011;40636;52.424;-1.948;2022-08-27T02:59:34;9.32;;;4.85;;
43363;SDS011;40636;52.424;-1.948;2022-08-27T03:02:01;10.10;;;4.53;;
43363;SDS011;40636;52.424;-1.948;2022-08-27T03:04:29;8.23;;;4.95;;
43363;SDS011;40636;52.424;-1.948;2022-08-27T03:06:56;8.05;;;5.05;;
43363;SDS011;40636;52.424;-1.948;2022-08-27T03:09:24;9.90;;;5.10;;
43363;SDS011;40636;52.424;-1.948;2022-08-27T03:11:51;16.50;;;5.63;;
43363;SDS011;40636;52.424;-1.948;2022-08-27T03:14:19;9.63;;;5.68;;
43363;SDS011;40636;52.424;-1.948;2022-08-27T03:16:46;7.25;;;5.35;;
43363;SDS011;40636;52.424;-1.948;2022-08-27T03:19:12;8.55;;;4.70;;
43363;SDS011;40636;52.424;-1.948;2022-08-27T03:21:49;8.18;;;4.93;;
43363;SDS011;40636;52.424;-1.948;2022-08-27T03:24:20;9.65;;;5.65;;
43363;SDS011;40636;52.424;-1.948;2022-08-27T03:26:47;8.20;;;5.57;;
43363;SDS011;40636;52.424;-1.948;2022-08-27T03:29:19;11.45;;;6.22;;
43363;SDS011;40636;52.424;-1.948;2022-08-27T03:31:46;9.77;;;5.88;;
43363;SDS011;40636;52.424;-1.948;2022-08-27T03:34:13;16.83;;;6.43;;
43363;SDS011;40636;52.424;-1.948;2022-08-27T03:36:45;15.55;;;6.50;;
43363;SDS011;40636;52.424;-1.948;2022-08-27T03:39:14;11.13;;;6.53;;
43363;SDS011;40636;52.424;-1.948;2022-08-27T03:41:41;11.13;;;6.07;;
43363;SDS011;40636;52.424;-1.948;2022-08-27T03:44:21;11.60;;;5.47;;
43363;SDS011;40636;52.424;-1.948;2022-08-27T03:47:24;14.10;;;5.57;;
43363;SDS011;40636;52.424;-1.948;2022-08-27T03:49:52;9.05;;;5.35;;
43363;SDS011;40636;52.424;-1.948;2022-08-27T03:52:19;11.20;;;6.32;;
43363;SDS011;40636;52.424;-1.948;2022-08-27T03:54:46;9.65;;;6.13;;
43363;SDS011;40636;52.424;-1.948;2022-08-27T03:57:13;10.73;;;6.45;;
43363;SDS011;40636;52.424;-1.948;2022-08-27T03:59:39;9.05;;;6.22;;
43363;SDS011;40636;52.424;-1.948;2022-08-27T04:02:06;10.20;;;5.60;;
43363;SDS011;40636;52.424;-1.948;2022-08-27T04:04:33;13.63;;;6.63;;
43363;SDS011;40636;52.424;-1.948;2022-08-27T04:07:00;12.50;;;6.78;;
43363;SDS011;40636;52.424;-1.948;2022-08-27T04:09:28;11.38;;;6.57;;
43363;SDS011;40636;52.424;-1.948;2022-08-27T04:11:54;9.75;;;6.50;;
43363;SDS011;40636;52.424;-1.948;2022-08-27T04:14:21;14.77;;;6.07;;
43363;SDS011;40636;52.424;-1.948;2022-08-27T04:16:52;14.27;;;7.10;;
43363;SDS011;40636;52.424;-1.948;2022-08-27T04:19:21;11.98;;;5.63;;
43363;SDS011;40636;52.424;-1.948;2022-08-27T04:21:53;13.63;;;6.53;;
43363;SDS011;40636;52.424;-1.948;2022-08-27T04:24:24;12.80;;;6.10;;
43363;SDS011;40636;52.424;-1.948;2022-08-27T04:26:51;13.27;;;6.00;;
43363;SDS011;40636;52.424;-1.948;2022-08-27T04:29:18;19.48;;;7.03;;
43363;SDS011;40636;52.424;-1.948;2022-08-27T04:31:44;15.15;;;6.70;;
43363;SDS011;40636;52.424;-1.948;2022-08-27T04:34:11;14.27;;;7.30;;
43363;SDS011;40636;52.424;-1.948;2022-08-27T04:36:38;11.45;;;6.88;;
43363;SDS011;40636;52.424;-1.948;2022-08-27T04:39:05;12.13;;;6.93;;
43363;SDS011;40636;52.424;-1.948;2022-08-27T04:41:32;13.90;;;7.70;;
43363;SDS011;40636;52.424;-1.948;2022-08-27T04:44:06;13.45;;;6.20;;
43363;SDS011;40636;52.424;-1.948;2022-08-27T04:46:35;11.45;;;8.50;;
43363;SDS011;40636;52.424;-1.948;2022-08-27T04:49:05;9.77;;;6.78;;
43363;SDS011;40636;52.424;-1.948;2022-08-27T04:51:38;12.20;;;6.85;;
43363;SDS011;40636;52.424;-1.948;2022-08-27T04:54:07;10.95;;;7.38;;
43363;SDS011;40636;52.424;-1.948;2022-08-27T04:56:35;11.00;;;7.25;;
43363;SDS011;40636;52.424;-1.948;2022-08-27T04:59:03;13.18;;;6.63;;
43363;SDS011;40636;52.424;-1.948;2022-08-27T05:01:32;14.70;;;7.25;;
43363;SDS011;40636;52.424;-1.948;2022-08-27T05:03:59;10.20;;;7.20;;
43363;SDS011;40636;52.424;-1.948;2022-08-27T05:06:26;11.80;;;6.93;;
43363;SDS011;40636;52.424;-1.948;2022-08-27T05:08:54;11.70;;;6.68;;
43363;SDS011;40636;52.424;-1.948;2022-08-27T05:11:21;9.93;;;6.65;;
43363;SDS011;40636;52.424;-1.948;2022-08-27T05:13:49;13.82;;;7.80;;
43363;SDS011;40636;52.424;-1.948;2022-08-27T05:16:20;11.60;;;5.43;;
43363;SDS011;40636;52.424;-1.948;2022-08-27T05:18:48;11.77;;;6.75;;
43363;SDS011;40636;52.424;-1.948;2022-08-27T05:23:55;13.88;;;7.25;;
43363;SDS011;40636;52.424;-1.948;2022-08-27T05:26:24;15.30;;;6.82;;
43363;SDS011;40636;52.424;-1.948;2022-08-27T05:28:52;10.38;;;6.18;;
43363;SDS011;40636;52.424;-1.948;2022-08-27T05:31:20;9.85;;;5.97;;
43363;SDS011;40636;52.424;-1.948;2022-08-27T05:33:48;10.63;;;6.50;;
43363;SDS011;40636;52.424;-1.948;2022-08-27T05:36:38;13.05;;;7.13;;
43363;SDS011;40636;52.424;-1.948;2022-08-27T05:39:03;8.63;;;6.70;;
43363;SDS011;40636;52.424;-1.948;2022-08-27T05:41:31;13.75;;;7.68;;
43363;SDS011;40636;52.424;-1.948;2022-08-27T05:44:04;14.32;;;7.57;;
43363;SDS011;40636;52.424;-1.948;2022-08-27T05:46:54;17.45;;;7.53;;
43363;SDS011;40636;52.424;-1.948;2022-08-27T05:49:21;13.60;;;8.30;;
43363;SDS011;40636;52.424;-1.948;2022-08-27T05:51:48;12.95;;;7.03;;
43363;SDS011;40636;52.424;-1.948;2022-08-27T05:54:16;12.80;;;7.05;;
43363;SDS011;40636;52.424;-1.948;2022-08-27T05:56:46;12.43;;;6.85;;
43363;SDS011;40636;52.424;-1.948;2022-08-27T05:59:17;12.43;;;7.95;;
43363;SDS011;40636;52.424;-1.948;2022-08-27T06:02:02;14.55;;;7.90;;
43363;SDS011;40636;52.424;-1.948;2022-08-27T06:04:31;12.52;;;7.65;;
43363;SDS011;40636;52.424;-1.948;2022-08-27T06:06:58;16.10;;;8.40;;
43363;SDS011;40636;52.424;-1.948;2022-08-27T06:09:25;13.07;;;7.63;;
43363;SDS011;40636;52.424;-1.948;2022-08-27T06:11:58;14.02;;;8.55;;
43363;SDS011;40636;52.424;-1.948;2022-08-27T06:14:26;14.23;;;9.13;;
43363;SDS011;40636;52.424;-1.948;2022-08-27T06:16:53;16.00;;;8.43;;
43363;SDS011;40636;52.424;-1.948;2022-08-27T06:19:21;12.15;;;8.00;;
43363;SDS011;40636;52.424;-1.948;2022-08-27T06:21:48;17.48;;;9.30;;
43363;SDS011;40636;52.424;-1.948;2022-08-27T06:24:35;16.73;;;9.75;;
43363;SDS011;40636;52.424;-1.948;2022-08-27T06:27:03;21.20;;;10.45;;
43363;SDS011;40636;52.424;-1.948;2022-08-27T06:29:30;24.00;;;11.93;;
43363;SDS011;40636;52.424;-1.948;2022-08-27T06:32:00;24.85;;;13.52;;
43363;SDS011;40636;52.424;-1.948;2022-08-27T06:34:27;19.95;;;12.23;;
43363;SDS011;40636;52.424;-1.948;2022-08-27T06:36:54;21.13;;;12.38;;
43363;SDS011;40636;52.424;-1.948;2022-08-27T06:39:21;22.77;;;11.55;;
43363;SDS011;40636;52.424;-1.948;2022-08-27T06:41:48;22.60;;;12.15;;
43363;SDS011;40636;52.424;-1.948;2022-08-27T06:44:15;23.58;;;11.52;;
43363;SDS011;40636;52.424;-1.948;2022-08-27T06:46:42;20.50;;;11.40;;
43363;SDS011;40636;52.424;-1.948;2022-08-27T06:49:10;23.17;;;11.30;;
43363;SDS011;40636;52.424;-1.948;2022-08-27T06:51:38;20.80;;;10.93;;
43363;SDS011;40636;52.424;-1.948;2022-08-27T06:54:09;17.67;;;9.93;;
43363;SDS011;40636;52.424;-1.948;2022-08-27T06:56:40;16.75;;;9.73;;
43363;SDS011;40636;52.424;-1.948;2022-08-27T06:59:08;20.27;;;11.48;;
43363;SDS011;40636;52.424;-1.948;2022-08-27T07:01:38;21.73;;;11.73;;
43363;SDS011;40636;52.424;-1.948;2022-08-27T07:04:08;18.27;;;10.30;;
43363;SDS011;40636;52.424;-1.948;2022-08-27T07:06:37;26.13;;;10.63;;
43363;SDS011;40636;52.424;-1.948;2022-08-27T07:09:05;21.40;;;10.02;;
43363;SDS011;40636;52.424;-1.948;2022-08-27T07:11:32;21.75;;;10.40;;
43363;SDS011;40636;52.424;-1.948;2022-08-27T07:14:00;18.45;;;9.75;;
43363;SDS011;40636;52.424;-1.948;2022-08-27T07:16:28;19.00;;;11.02;;
43363;SDS011;40636;52.424;-1.948;2022-08-27T07:18:56;25.08;;;11.23;;
43363;SDS011;40636;52.424;-1.948;2022-08-27T07:21:29;21.42;;;11.30;;
43363;SDS011;40636;52.424;-1.948;2022-08-27T07:23:58;19.83;;;9.15;;
43363;SDS011;40636;52.424;-1.948;2022-08-27T07:26:31;21.20;;;9.02;;
43363;SDS011;40636;52.424;-1.948;2022-08-27T07:29:00;15.77;;;9.45;;
43363;SDS011;40636;52.424;-1.948;2022-08-27T07:31:27;18.52;;;10.00;;
43363;SDS011;40636;52.424;-1.948;2022-08-27T07:33:54;14.45;;;9.05;;
43363;SDS011;40636;52.424;-1.948;2022-08-27T07:36:21;18.55;;;9.32;;
43363;SDS011;40636;52.424;-1.948;2022-08-27T07:38:49;15.52;;;9.52;;
43363;SDS011;40636;52.424;-1.948;2022-08-27T07:41:27;17.50;;;9.45;;
43363;SDS011;40636;52.424;-1.948;2022-08-27T07:44:00;13.75;;;9.13;;
43363;SDS011;40636;52.424;-1.948;2022-08-27T07:46:51;17.35;;;9.05;;
43363;SDS011;40636;52.424;-1.948;2022-08-27T07:49:23;18.55;;;9.63;;
43363;SDS011;40636;52.424;-1.948;2022-08-27T07:51:50;16.40;;;10.40;;
43363;SDS011;40636;52.424;-1.948;2022-08-27T07:54:19;18.15;;;10.77;;
43363;SDS011;40636;52.424;-1.948;2022-08-27T07:56:47;14.60;;;8.80;;
43363;SDS011;40636;52.424;-1.948;2022-08-27T07:59:21;21.88;;;10.15;;
43363;SDS011;40636;52.424;-1.948;2022-08-27T08:01:51;15.55;;;9.30;;
43363;SDS011;40636;52.424;-1.948;2022-08-27T08:04:19;16.80;;;8.45;;
43363;SDS011;40636;52.424;-1.948;2022-08-27T08:06:48;16.83;;;8.77;;
43363;SDS011;40636;52.424;-1.948;2022-08-27T08:09:17;20.58;;;9.50;;
43363;SDS011;40636;52.424;-1.948;2022-08-27T08:11:44;13.45;;;8.85;;
43363;SDS011;40636;52.424;-1.948;2022-08-27T08:14:11;11.82;;;8.32;;
43363;SDS011;40636;52.424;-1.948;2022-08-27T08:16:39;13.35;;;8.32;;
43363;SDS011;40636;52.424;-1.948;2022-08-27T08:19:06;14.85;;;8.00;;
43363;SDS011;40636;52.424;-1.948;2022-08-27T08:21:34;17.52;;;8.07;;
43363;SDS011;40636;52.424;-1.948;2022-08-27T08:24:01;13.00;;;7.75;;
43363;SDS011;40636;52.424;-1.948;2022-08-27T08:26:29;14.90;;;7.45;;
43363;SDS011;40636;52.424;-1.948;2022-08-27T08:28:56;10.32;;;7.00;;
43363;SDS011;40636;52.424;-1.948;2022-08-27T08:31:23;12.30;;;6.60;;
43363;SDS011;40636;52.424;-1.948;2022-08-27T08:33:50;13.25;;;7.22;;
43363;SDS011;40636;52.424;-1.948;2022-08-27T08:36:18;15.30;;;7.28;;
43363;SDS011;40636;52.424;-1.948;2022-08-27T08:38:45;15.10;;;7.18;;
43363;SDS011;40636;52.424;-1.948;2022-08-27T08:41:59;13.55;;;6.88;;
43363;SDS011;40636;52.424;-1.948;2022-08-27T08:44:15;14.35;;;6.93;;
43363;SDS011;40636;52.424;-1.948;2022-08-27T08:46:47;10.55;;;6.28;;
43363;SDS011;40636;52.424;-1.948;2022-08-27T08:55:44;16.55;;;8.50;;
43363;SDS011;40636;52.424;-1.948;2022-08-27T08:58:14;13.23;;;7.03;;
43363;SDS011;40636;52.424;-1.948;2022-08-27T09:00:59;12.00;;;6.75;;
43363;SDS011;40636;52.424;-1.948;2022-08-27T09:03:31;11.25;;;6.75;;
43363;SDS011;40636;52.424;-1.948;2022-08-27T09:06:03;9.75;;;6.38;;
43363;SDS011;40636;52.424;-1.948;2022-08-27T09:08:35;11.40;;;8.48;;
43363;SDS011;40636;52.424;-1.948;2022-08-27T09:11:27;9.52;;;5.97;;
43363;SDS011;40636;52.424;-1.948;2022-08-27T09:16:50;13.13;;;6.28;;
43363;SDS011;40636;52.424;-1.948;2022-08-27T09:19:22;8.93;;;6.15;;
43363;SDS011;40636;52.424;-1.948;2022-08-27T09:21:53;12.70;;;6.43;;
43363;SDS011;40636;52.424;-1.948;2022-08-27T09:24:29;12.50;;;6.25;;
43363;SDS011;40636;52.424;-1.948;2022-08-27T09:27:02;9.75;;;6.43;;
43363;SDS011;40636;52.424;-1.948;2022-08-27T09:29:29;12.20;;;6.38;;
43363;SDS011;40636;52.424;-1.948;2022-08-27T09:31:58;13.30;;;8.18;;
43363;SDS011;40636;52.424;-1.948;2022-08-27T09:34:33;10.23;;;6.45;;
43363;SDS011;40636;52.424;-1.948;2022-08-27T09:37:06;11.02;;;6.82;;
43363;SDS011;40636;52.424;-1.948;2022-08-27T09:42:25;10.23;;;6.05;;
43363;SDS011;40636;52.424;-1.948;2022-08-27T09:44:56;10.98;;;5.65;;
43363;SDS011;40636;52.424;-1.948;2022-08-27T09:47:23;8.95;;;6.15;;
43363;SDS011;40636;52.424;-1.948;2022-08-27T09:50:01;9.55;;;5.60;;
43363;SDS011;40636;52.424;-1.948;2022-08-27T09:52:33;6.65;;;4.68;;
43363;SDS011;40636;52.424;-1.948;2022-08-27T09:55:11;8.85;;;5.75;;
43363;SDS011;40636;52.424;-1.948;2022-08-27T09:57:40;7.13;;;4.60;;
43363;SDS011;40636;52.424;-1.948;2022-08-27T10:00:13;13.80;;;5.40;;
43363;SDS011;40636;52.424;-1.948;2022-08-27T10:02:51;7.40;;;4.47;;
43363;SDS011;40636;52.424;-1.948;2022-08-27T10:05:24;8.77;;;5.05;;
43363;SDS011;40636;52.424;-1.948;2022-08-27T10:08:05;14.40;;;5.38;;
43363;SDS011;40636;52.424;-1.948;2022-08-27T10:10:47;12.02;;;5.72;;
43363;SDS011;40636;52.424;-1.948;2022-08-27T10:21:11;8.93;;;4.97;;
43363;SDS011;40636;52.424;-1.948;2022-08-27T10:33:08;8.88;;;6.30;;
43363;SDS011;40636;52.424;-1.948;2022-08-27T10:35:39;11.82;;;5.85;;
43363;SDS011;40636;52.424;-1.948;2022-08-27T10:38:37;8.43;;;5.38;;
43363;SDS011;40636;52.424;-1.948;2022-08-27T10:41:41;11.02;;;5.95;;
43363;SDS011;40636;52.424;-1.948;2022-08-27T10:47:38;8.40;;;5.18;;
43363;SDS011;40636;52.424;-1.948;2022-08-27T10:50:14;10.23;;;5.15;;
43363;SDS011;40636;52.424;-1.948;2022-08-27T10:52:53;14.45;;;6.50;;
43363;SDS011;40636;52.424;-1.948;2022-08-27T10:55:29;6.60;;;4.57;;
43363;SDS011;40636;52.424;-1.948;2022-08-27T11:01:02;6.25;;;4.90;;
43363;SDS011;40636;52.424;-1.948;2022-08-27T11:04:20;7.50;;;5.45;;
43363;SDS011;40636;52.424;-1.948;2022-08-27T11:07:42;5.75;;;3.97;;
43363;SDS011;40636;52.424;-1.948;2022-08-27T11:17:42;10.07;;;5.10;;
43363;SDS011;40636;52.424;-1.948;2022-08-27T11:23:04;4.85;;;3.15;;
43363;SDS011;40636;52.424;-1.948;2022-08-27T11:25:46;4.90;;;3.60;;
43363;SDS011;40636;52.424;-1.948;2022-08-27T11:28:20;5.00;;;3.90;;
43363;SDS011;40636;52.424;-1.948;2022-08-27T11:39:26;5.93;;;3.55;;
43363;SDS011;40636;52.424;-1.948;2022-08-27T11:45:20;5.50;;;3.65;;
43363;SDS011;40636;52.424;-1.948;2022-08-27T11:50:22;5.88;;;3.47;;
43363;SDS011;40636;52.424;-1.948;2022-08-27T12:00:59;6.05;;;3.58;;
43363;SDS011;40636;52.424;-1.948;2022-08-27T12:03:31;6.15;;;3.10;;
43363;SDS011;40636;52.424;-1.948;2022-08-27T12:06:08;4.13;;;2.80;;
43363;SDS011;40636;52.424;-1.948;2022-08-27T12:08:43;4.97;;;2.78;;
43363;SDS011;40636;52.424;-1.948;2022-08-27T12:11:22;9.38;;;3.47;;
43363;SDS011;40636;52.424;-1.948;2022-08-27T12:14:11;4.97;;;2.65;;
43363;SDS011;40636;52.424;-1.948;2022-08-27T12:16:57;8.02;;;3.05;;
43363;SDS011;40636;52.424;-1.948;2022-08-27T12:22:55;4.35;;;2.88;;
43363;SDS011;40636;52.424;-1.948;2022-08-27T12:26:20;6.32;;;2.47;;
43363;SDS011;40636;52.424;-1.948;2022-08-27T12:29:16;10.40;;;2.50;;
43363;SDS011;40636;52.424;-1.948;2022-08-27T12:31:44;5.72;;;2.22;;
43363;SDS011;40636;52.424;-1.948;2022-08-27T12:34:18;3.90;;;2.80;;
43363;SDS011;40636;52.424;-1.948;2022-08-27T12:36:48;7.97;;;2.88;;
43363;SDS011;40636;52.424;-1.948;2022-08-27T12:39:20;5.10;;;2.38;;
43363;SDS011;40636;52.424;-1.948;2022-08-27T12:42:02;9.93;;;3.38;;
43363;SDS011;40636;52.424;-1.948;2022-08-27T12:44:38;4.60;;;2.55;;
43363;SDS011;40636;52.424;-1.948;2022-08-27T12:47:06;4.95;;;2.78;;
43363;SDS011;40636;52.424;-1.948;2022-08-27T12:49:43;7.38;;;3.35;;
43363;SDS011;40636;52.424;-1.948;2022-08-27T13:03:51;2.63;;;2.20;;
43363;SDS011;40636;52.424;-1.948;2022-08-27T13:06:28;6.68;;;2.90;;
43363;SDS011;40636;52.424;-1.948;2022-08-27T13:09:01;4.28;;;2.22;;
43363;SDS011;40636;52.424;-1.948;2022-08-27T13:11:32;3.42;;;2.25;;
43363;SDS011;40636;52.424;-1.948;2022-08-27T13:14:09;5.70;;;2.20;;
43363;SDS011;40636;52.424;-1.948;2022-08-27T13:16:49;4.18;;;2.60;;
43363;SDS011;40636;52.424;-1.948;2022-08-27T13:19:24;6.70;;;2.95;;
43363;SDS011;40636;52.424;-1.948;2022-08-27T13:21:54;6.25;;;2.30;;
43363;SDS011;40636;52.424;-1.948;2022-08-27T13:27:14;7.30;;;2.78;;
43363;SDS011;40636;52.424;-1.948;2022-08-27T13:29:41;5.72;;;1.83;;
43363;SDS011;40636;52.424;-1.948;2022-08-27T13:32:09;2.50;;;2.00;;
43363;SDS011;40636;52.424;-1.948;2022-08-27T13:34:39;5.60;;;2.45;;
43363;SDS011;40636;52.424;-1.948;2022-08-27T13:37:20;1.73;;;1.50;;
43363;SDS011;40636;52.424;-1.948;2022-08-27T13:39:53;3.33;;;2.00;;
43363;SDS011;40636;52.424;-1.948;2022-08-27T13:42:21;8.35;;;4.20;;
43363;SDS011;40636;52.424;-1.948;2022-08-27T13:44:51;4.90;;;1.88;;
43363;SDS011;40636;52.424;-1.948;2022-08-27T13:47:23;4.28;;;1.65;;
43363;SDS011;40636;52.424;-1.948;2022-08-27T13:50:00;2.63;;;2.42;;
43363;SDS011;40636;52.424;-1.948;2022-08-27T13:52:31;2.75;;;2.13;;
43363;SDS011;40636;52.424;-1.948;2022-08-27T13:55:07;5.50;;;2.50;;
43363;SDS011;40636;52.424;-1.948;2022-08-27T13:57:44;3.38;;;2.63;;
43363;SDS011;40636;52.424;-1.948;2022-08-27T14:02:41;4.97;;;2.55;;
43363;SDS011;40636;52.424;-1.948;2022-08-27T14:07:49;4.80;;;2.40;;
43363;SDS011;40636;52.424;-1.948;2022-08-27T14:10:37;2.58;;;1.65;;
43363;SDS011;40636;52.424;-1.948;2022-08-27T14:15:58;4.25;;;2.38;;
43363;SDS011;40636;52.424;-1.948;2022-08-27T14:18:30;7.40;;;2.53;;
43363;SDS011;40636;52.424;-1.948;2022-08-27T14:21:21;5.03;;;2.53;;
43363;SDS011;40636;52.424;-1.948;2022-08-27T14:23:49;3.45;;;2.05;;
43363;SDS011;40636;52.424;-1.948;2022-08-27T14:26:17;3.72;;;2.30;;
43363;SDS011;40636;52.424;-1.948;2022-08-27T14:28:44;7.50;;;2.97;;
43363;SDS011;40636;52.424;-1.948;2022-08-27T14:31:11;3.70;;;2.17;;
43363;SDS011;40636;52.424;-1.948;2022-08-27T14:33:39;7.55;;;2.78;;
43363;SDS011;40636;52.424;-1.948;2022-08-27T14:36:06;6.72;;;2.83;;
43363;SDS011;40636;52.424;-1.948;2022-08-27T14:38:36;5.78;;;2.38;;
43363;SDS011;40636;52.424;-1.948;2022-08-27T14:41:06;4.07;;;2.33;;
43363;SDS011;40636;52.424;-1.948;2022-08-27T14:43:34;3.10;;;2.22;;
43363;SDS011;40636;52.424;-1.948;2022-08-27T14:46:01;6.78;;;2.50;;
43363;SDS011;40636;52.424;-1.948;2022-08-27T14:48:30;2.38;;;1.90;;
43363;SDS011;40636;52.424;-1.948;2022-08-27T14:50:59;5.55;;;2.35;;
43363;SDS011;40636;52.424;-1.948;2022-08-27T14:53:32;3.25;;;2.53;;
43363;SDS011;40636;52.424;-1.948;2022-08-27T14:55:59;4.65;;;2.35;;
43363;SDS011;40636;52.424;-1.948;2022-08-27T14:58:27;2.83;;;1.90;;
43363;SDS011;40636;52.424;-1.948;2022-08-27T15:00:55;5.10;;;1.92;;
43363;SDS011;40636;52.424;-1.948;2022-08-27T15:03:23;6.53;;;1.98;;
43363;SDS011;40636;52.424;-1.948;2022-08-27T15:05:53;3.33;;;2.10;;
43363;SDS011;40636;52.424;-1.948;2022-08-27T15:08:21;3.28;;;2.10;;
43363;SDS011;40636;52.424;-1.948;2022-08-27T15:10:54;4.35;;;2.30;;
43363;SDS011;40636;52.424;-1.948;2022-08-27T15:13:22;3.33;;;1.88;;
43363;SDS011;40636;52.424;-1.948;2022-08-27T15:15:49;3.35;;;1.85;;
43363;SDS011;40636;52.424;-1.948;2022-08-27T15:18:17;5.97;;;2.08;;
43363;SDS011;40636;52.424;-1.948;2022-08-27T15:20:44;8.40;;;3.05;;
43363;SDS011;40636;52.424;-1.948;2022-08-27T15:23:11;4.82;;;2.17;;
43363;SDS011;40636;52.424;-1.948;2022-08-27T15:25:41;3.65;;;2.08;;
43363;SDS011;40636;52.424;-1.948;2022-08-27T15:28:09;4.63;;;1.95;;
43363;SDS011;40636;52.424;-1.948;2022-08-27T15:30:37;2.58;;;1.52;;
43363;SDS011;40636;52.424;-1.948;2022-08-27T15:33:04;6.80;;;1.95;;
43363;SDS011;40636;52.424;-1.948;2022-08-27T15:35:31;4.03;;;1.80;;
43363;SDS011;40636;52.424;-1.948;2022-08-27T15:37:59;5.07;;;1.50;;
43363;SDS011;40636;52.424;-1.948;2022-08-27T15:40:27;5.55;;;2.38;;
43363;SDS011;40636;52.424;-1.948;2022-08-27T15:42:58;4.47;;;1.88;;
43363;SDS011;40636;52.424;-1.948;2022-08-27T15:45:30;2.20;;;1.70;;
43363;SDS011;40636;52.424;-1.948;2022-08-27T15:47:58;6.43;;;2.30;;
43363;SDS011;40636;52.424;-1.948;2022-08-27T15:50:25;2.78;;;2.38;;
43363;SDS011;40636;52.424;-1.948;2022-08-27T15:52:55;4.07;;;1.52;;
43363;SDS011;40636;52.424;-1.948;2022-08-27T15:55:27;3.97;;;1.85;;
43363;SDS011;40636;52.424;-1.948;2022-08-27T15:57:57;2.00;;;1.55;;
43363;SDS011;40636;52.424;-1.948;2022-08-27T16:00:25;6.05;;;1.80;;
43363;SDS011;40636;52.424;-1.948;2022-08-27T16:02:54;3.67;;;1.50;;
43363;SDS011;40636;52.424;-1.948;2022-08-27T16:05:22;2.75;;;1.80;;
43363;SDS011;40636;52.424;-1.948;2022-08-27T16:07:51;4.30;;;2.00;;
43363;SDS011;40636;52.424;-1.948;2022-08-27T16:10:18;5.18;;;1.92;;
43363;SDS011;40636;52.424;-1.948;2022-08-27T16:12:45;5.20;;;2.00;;
43363;SDS011;40636;52.424;-1.948;2022-08-27T16:15:12;5.22;;;2.50;;
43363;SDS011;40636;52.424;-1.948;2022-08-27T16:17:40;2.53;;;1.65;;
43363;SDS011;40636;52.424;-1.948;2022-08-27T16:20:08;2.53;;;1.60;;
43363;SDS011;40636;52.424;-1.948;2022-08-27T16:22:36;3.50;;;1.40;;
43363;SDS011;40636;52.424;-1.948;2022-08-27T16:25:04;2.28;;;1.60;;
43363;SDS011;40636;52.424;-1.948;2022-08-27T16:27:32;2.97;;;1.35;;
43363;SDS011;40636;52.424;-1.948;2022-08-27T16:29:59;1.40;;;1.30;;
43363;SDS011;40636;52.424;-1.948;2022-08-27T16:32:26;4.55;;;2.22;;
43363;SDS011;40636;52.424;-1.948;2022-08-27T16:34:56;3.67;;;2.60;;
43363;SDS011;40636;52.424;-1.948;2022-08-27T16:37:24;4.47;;;1.65;;
43363;SDS011;40636;52.424;-1.948;2022-08-27T16:39:51;2.13;;;1.48;;
43363;SDS011;40636;52.424;-1.948;2022-08-27T16:42:19;2.08;;;1.50;;